Terminal Aerodrome Forecast
Issued by NWS

Home | Current Version | Previous Version | Text Only | Print | Product List | Glossary Off
Versions: 1 2 3 4 5 6 7 8 9 10 11 12 13 14

367
FTUS43 KBIS 162340
TAFJMS
TAF
KJMS 162340Z 1700/1724 15016G24KT P6SM BKN140
     FM170300 16011KT P6SM BKN120 OVC150
     FM170800 25005KT P6SM BKN110
     FM171100 31007KT P6SM BKN100=

USA.gov is the U.S. government's official web portal to all federal, state and local government web resources and services.